sensor_id;sensor_type;location;lat;lon;timestamp;P1;durP1;ratioP1;P2;durP2;ratioP2
76576;SDS011;65441;44.748;37.600;2024-03-23T00:51:03;11.50;;;4.03;;
76576;SDS011;65441;44.748;37.600;2024-03-23T00:55:59;10.45;;;3.75;;
76576;SDS011;65441;44.748;37.600;2024-03-23T00:58:27;8.23;;;3.63;;
76576;SDS011;65441;44.748;37.600;2024-03-23T01:00:55;12.10;;;4.20;;
76576;SDS011;65441;44.748;37.600;2024-03-23T01:03:23;10.55;;;3.35;;
76576;SDS011;65441;44.748;37.600;2024-03-23T01:05:50;12.38;;;4.50;;
76576;SDS011;65441;44.748;37.600;2024-03-23T01:08:20;10.48;;;3.28;;
76576;SDS011;65441;44.748;37.600;2024-03-23T01:10:53;8.65;;;3.30;;
76576;SDS011;65441;44.748;37.600;2024-03-23T01:13:22;11.20;;;3.80;;
76576;SDS011;65441;44.748;37.600;2024-03-23T01:15:49;9.75;;;3.30;;
76576;SDS011;65441;44.748;37.600;2024-03-23T01:18:19;8.43;;;3.70;;
76576;SDS011;65441;44.748;37.600;2024-03-23T01:20:46;9.63;;;3.75;;
76576;SDS011;65441;44.748;37.600;2024-03-23T01:23:14;10.35;;;3.55;;
76576;SDS011;65441;44.748;37.600;2024-03-23T01:25:43;8.85;;;2.97;;
76576;SDS011;65441;44.748;37.600;2024-03-23T01:28:11;9.77;;;3.35;;
76576;SDS011;65441;44.748;37.600;2024-03-23T01:30:38;11.75;;;3.75;;
76576;SDS011;65441;44.748;37.600;2024-03-23T01:33:06;10.00;;;3.20;;
76576;SDS011;65441;44.748;37.600;2024-03-23T01:35:33;9.68;;;3.20;;
76576;SDS011;65441;44.748;37.600;2024-03-23T01:38:01;9.15;;;3.67;;
76576;SDS011;65441;44.748;37.600;2024-03-23T01:40:28;7.97;;;2.63;;
76576;SDS011;65441;44.748;37.600;2024-03-23T01:43:02;8.07;;;3.15;;
76576;SDS011;65441;44.748;37.600;2024-03-23T01:45:31;8.45;;;3.13;;
76576;SDS011;65441;44.748;37.600;2024-03-23T01:47:59;9.18;;;3.10;;
76576;SDS011;65441;44.748;37.600;2024-03-23T01:52:55;12.45;;;3.25;;
76576;SDS011;65441;44.748;37.600;2024-03-23T01:55:22;9.57;;;2.83;;
76576;SDS011;65441;44.748;37.600;2024-03-23T01:57:51;9.15;;;3.28;;
76576;SDS011;65441;44.748;37.600;2024-03-23T02:00:19;12.35;;;4.20;;
76576;SDS011;65441;44.748;37.600;2024-03-23T02:02:49;9.05;;;2.90;;
76576;SDS011;65441;44.748;37.600;2024-03-23T02:05:16;10.45;;;3.15;;
76576;SDS011;65441;44.748;37.600;2024-03-23T02:07:44;9.52;;;2.95;;
76576;SDS011;65441;44.748;37.600;2024-03-23T02:10:11;9.20;;;3.15;;
76576;SDS011;65441;44.748;37.600;2024-03-23T02:12:41;9.55;;;3.17;;
76576;SDS011;65441;44.748;37.600;2024-03-23T02:15:08;7.88;;;2.70;;
76576;SDS011;65441;44.748;37.600;2024-03-23T02:17:38;9.00;;;2.85;;
76576;SDS011;65441;44.748;37.600;2024-03-23T02:20:05;11.27;;;3.50;;
76576;SDS011;65441;44.748;37.600;2024-03-23T02:22:36;8.63;;;3.40;;
76576;SDS011;65441;44.748;37.600;2024-03-23T02:25:05;7.82;;;2.78;;
76576;SDS011;65441;44.748;37.600;2024-03-23T02:27:34;10.18;;;3.40;;
76576;SDS011;65441;44.748;37.600;2024-03-23T02:30:02;12.55;;;3.35;;
76576;SDS011;65441;44.748;37.600;2024-03-23T02:32:30;9.40;;;3.60;;
76576;SDS011;65441;44.748;37.600;2024-03-23T02:34:57;10.00;;;2.78;;
76576;SDS011;65441;44.748;37.600;2024-03-23T02:37:26;8.60;;;2.58;;
76576;SDS011;65441;44.748;37.600;2024-03-23T02:39:53;8.98;;;2.97;;
76576;SDS011;65441;44.748;37.600;2024-03-23T02:42:23;11.45;;;3.55;;
76576;SDS011;65441;44.748;37.600;2024-03-23T02:44:50;8.18;;;2.80;;
76576;SDS011;65441;44.748;37.600;2024-03-23T02:47:18;9.93;;;3.75;;
76576;SDS011;65441;44.748;37.600;2024-03-23T02:49:45;10.57;;;3.30;;
76576;SDS011;65441;44.748;37.600;2024-03-23T02:52:13;10.55;;;3.28;;
76576;SDS011;65441;44.748;37.600;2024-03-23T02:54:40;7.35;;;2.80;;
76576;SDS011;65441;44.748;37.600;2024-03-23T02:57:10;9.05;;;3.63;;
76576;SDS011;65441;44.748;37.600;2024-03-23T02:59:39;8.82;;;3.05;;
76576;SDS011;65441;44.748;37.600;2024-03-23T03:02:07;7.50;;;2.67;;
76576;SDS011;65441;44.748;37.600;2024-03-23T03:04:34;6.63;;;2.22;;
76576;SDS011;65441;44.748;37.600;2024-03-23T03:07:02;8.25;;;2.55;;
76576;SDS011;65441;44.748;37.600;2024-03-23T03:09:30;6.50;;;2.60;;
76576;SDS011;65441;44.748;37.600;2024-03-23T03:11:59;6.78;;;2.38;;
76576;SDS011;65441;44.748;37.600;2024-03-23T03:14:26;9.32;;;2.60;;
76576;SDS011;65441;44.748;37.600;2024-03-23T03:16:55;7.32;;;2.35;;
76576;SDS011;65441;44.748;37.600;2024-03-23T03:19:23;8.18;;;2.75;;
76576;SDS011;65441;44.748;37.600;2024-03-23T03:21:51;6.68;;;2.10;;
76576;SDS011;65441;44.748;37.600;2024-03-23T03:24:18;9.30;;;2.92;;
76576;SDS011;65441;44.748;37.600;2024-03-23T03:26:46;6.68;;;2.58;;
76576;SDS011;65441;44.748;37.600;2024-03-23T03:29:13;7.80;;;2.67;;
76576;SDS011;65441;44.748;37.600;2024-03-23T03:31:41;8.63;;;2.50;;
76576;SDS011;65441;44.748;37.600;2024-03-23T03:34:12;7.40;;;2.67;;
76576;SDS011;65441;44.748;37.600;2024-03-23T03:36:41;7.13;;;2.15;;
76576;SDS011;65441;44.748;37.600;2024-03-23T03:39:08;8.10;;;2.75;;
76576;SDS011;65441;44.748;37.600;2024-03-23T03:41:36;9.88;;;2.55;;
76576;SDS011;65441;44.748;37.600;2024-03-23T03:44:03;7.45;;;2.28;;
76576;SDS011;65441;44.748;37.600;2024-03-23T03:46:31;8.85;;;2.58;;
76576;SDS011;65441;44.748;37.600;2024-03-23T03:48:59;9.20;;;2.45;;
76576;SDS011;65441;44.748;37.600;2024-03-23T03:51:28;7.10;;;2.17;;
76576;SDS011;65441;44.748;37.600;2024-03-23T03:53:55;8.57;;;2.85;;
76576;SDS011;65441;44.748;37.600;2024-03-23T03:56:23;7.60;;;2.38;;
76576;SDS011;65441;44.748;37.600;2024-03-23T03:58:50;6.10;;;2.53;;
76576;SDS011;65441;44.748;37.600;2024-03-23T04:01:18;8.82;;;2.33;;
76576;SDS011;65441;44.748;37.600;2024-03-23T04:03:45;7.03;;;2.47;;
76576;SDS011;65441;44.748;37.600;2024-03-23T04:06:18;7.35;;;2.30;;
76576;SDS011;65441;44.748;37.600;2024-03-23T04:08:47;7.78;;;2.40;;
76576;SDS011;65441;44.748;37.600;2024-03-23T04:11:15;6.90;;;2.25;;
76576;SDS011;65441;44.748;37.600;2024-03-23T04:13:43;9.85;;;2.95;;
76576;SDS011;65441;44.748;37.600;2024-03-23T04:16:11;7.40;;;2.58;;
76576;SDS011;65441;44.748;37.600;2024-03-23T04:18:38;9.75;;;2.75;;
76576;SDS011;65441;44.748;37.600;2024-03-23T04:21:06;6.50;;;2.05;;
76576;SDS011;65441;44.748;37.600;2024-03-23T04:23:33;8.43;;;2.50;;
76576;SDS011;65441;44.748;37.600;2024-03-23T04:26:04;7.80;;;2.60;;
76576;SDS011;65441;44.748;37.600;2024-03-23T04:28:31;10.43;;;2.92;;
76576;SDS011;65441;44.748;37.600;2024-03-23T04:31:03;7.30;;;2.55;;
76576;SDS011;65441;44.748;37.600;2024-03-23T04:33:30;9.48;;;3.03;;
76576;SDS011;65441;44.748;37.600;2024-03-23T04:35:58;10.20;;;2.60;;
76576;SDS011;65441;44.748;37.600;2024-03-23T04:38:25;11.77;;;3.00;;
76576;SDS011;65441;44.748;37.600;2024-03-23T04:40:54;8.77;;;2.60;;
76576;SDS011;65441;44.748;37.600;2024-03-23T04:43:24;7.72;;;2.78;;
76576;SDS011;65441;44.748;37.600;2024-03-23T04:45:53;7.03;;;2.47;;
76576;SDS011;65441;44.748;37.600;2024-03-23T04:48:22;11.20;;;3.42;;
76576;SDS011;65441;44.748;37.600;2024-03-23T04:50:54;7.18;;;2.17;;
76576;SDS011;65441;44.748;37.600;2024-03-23T04:53:26;8.50;;;2.33;;
76576;SDS011;65441;44.748;37.600;2024-03-23T04:55:55;6.95;;;1.95;;
76576;SDS011;65441;44.748;37.600;2024-03-23T04:58:26;6.72;;;2.17;;
76576;SDS011;65441;44.748;37.600;2024-03-23T05:00:54;7.72;;;2.08;;
76576;SDS011;65441;44.748;37.600;2024-03-23T05:03:22;8.38;;;2.42;;
76576;SDS011;65441;44.748;37.600;2024-03-23T05:05:51;8.68;;;2.42;;
76576;SDS011;65441;44.748;37.600;2024-03-23T05:08:18;6.10;;;2.00;;
76576;SDS011;65441;44.748;37.600;2024-03-23T05:10:46;7.45;;;2.33;;
76576;SDS011;65441;44.748;37.600;2024-03-23T05:13:13;7.53;;;1.85;;
76576;SDS011;65441;44.748;37.600;2024-03-23T05:15:43;7.18;;;2.15;;
76576;SDS011;65441;44.748;37.600;2024-03-23T05:18:10;6.15;;;2.45;;
76576;SDS011;65441;44.748;37.600;2024-03-23T05:20:38;8.23;;;2.35;;
76576;SDS011;65441;44.748;37.600;2024-03-23T05:23:05;9.48;;;2.58;;
76576;SDS011;65441;44.748;37.600;2024-03-23T05:25:33;8.55;;;2.75;;
76576;SDS011;65441;44.748;37.600;2024-03-23T05:28:00;8.07;;;2.67;;
76576;SDS011;65441;44.748;37.600;2024-03-23T05:30:29;6.72;;;2.08;;
76576;SDS011;65441;44.748;37.600;2024-03-23T05:32:57;6.43;;;2.72;;
76576;SDS011;65441;44.748;37.600;2024-03-23T05:35:25;8.45;;;2.70;;
76576;SDS011;65441;44.748;37.600;2024-03-23T05:37:52;6.35;;;1.67;;
76576;SDS011;65441;44.748;37.600;2024-03-23T05:40:20;7.30;;;2.10;;
76576;SDS011;65441;44.748;37.600;2024-03-23T05:42:47;9.75;;;2.33;;
76576;SDS011;65441;44.748;37.600;2024-03-23T05:45:19;7.75;;;2.17;;
76576;SDS011;65441;44.748;37.600;2024-03-23T05:47:46;6.45;;;1.98;;
76576;SDS011;65441;44.748;37.600;2024-03-23T05:50:15;8.25;;;2.75;;
76576;SDS011;65441;44.748;37.600;2024-03-23T05:52:43;5.20;;;1.60;;
76576;SDS011;65441;44.748;37.600;2024-03-23T05:55:12;8.00;;;2.05;;
76576;SDS011;65441;44.748;37.600;2024-03-23T05:57:39;8.02;;;1.90;;
76576;SDS011;65441;44.748;37.600;2024-03-23T06:00:07;7.15;;;2.25;;
76576;SDS011;65441;44.748;37.600;2024-03-23T06:02:42;5.88;;;1.92;;
76576;SDS011;65441;44.748;37.600;2024-03-23T06:05:11;7.18;;;1.80;;
76576;SDS011;65441;44.748;37.600;2024-03-23T06:07:40;5.18;;;1.83;;
76576;SDS011;65441;44.748;37.600;2024-03-23T06:10:08;4.50;;;1.38;;
76576;SDS011;65441;44.748;37.600;2024-03-23T06:12:35;5.10;;;1.48;;
76576;SDS011;65441;44.748;37.600;2024-03-23T06:15:04;4.32;;;1.98;;
76576;SDS011;65441;44.748;37.600;2024-03-23T06:17:33;5.13;;;1.38;;
76576;SDS011;65441;44.748;37.600;2024-03-23T06:20:01;6.25;;;1.50;;
76576;SDS011;65441;44.748;37.600;2024-03-23T06:22:29;5.32;;;1.92;;
76576;SDS011;65441;44.748;37.600;2024-03-23T06:24:59;4.97;;;1.27;;
76576;SDS011;65441;44.748;37.600;2024-03-23T06:27:26;5.47;;;1.33;;
76576;SDS011;65441;44.748;37.600;2024-03-23T06:29:55;4.80;;;1.27;;
76576;SDS011;65441;44.748;37.600;2024-03-23T06:32:22;4.95;;;1.52;;
76576;SDS011;65441;44.748;37.600;2024-03-23T06:34:53;5.75;;;1.45;;
76576;SDS011;65441;44.748;37.600;2024-03-23T06:37:20;7.30;;;1.73;;
76576;SDS011;65441;44.748;37.600;2024-03-23T06:39:48;6.55;;;1.85;;
76576;SDS011;65441;44.748;37.600;2024-03-23T06:42:17;5.43;;;1.75;;
76576;SDS011;65441;44.748;37.600;2024-03-23T06:44:45;5.80;;;1.67;;
76576;SDS011;65441;44.748;37.600;2024-03-23T06:47:13;6.82;;;1.73;;
76576;SDS011;65441;44.748;37.600;2024-03-23T06:49:40;5.43;;;1.70;;
76576;SDS011;65441;44.748;37.600;2024-03-23T06:52:08;5.78;;;1.77;;
76576;SDS011;65441;44.748;37.600;2024-03-23T06:54:35;4.88;;;1.45;;
76576;SDS011;65441;44.748;37.600;2024-03-23T06:57:03;5.95;;;1.73;;
76576;SDS011;65441;44.748;37.600;2024-03-23T06:59:32;4.85;;;1.63;;
76576;SDS011;65441;44.748;37.600;2024-03-23T07:02:00;8.27;;;1.90;;
76576;SDS011;65441;44.748;37.600;2024-03-23T07:04:27;4.68;;;1.50;;
76576;SDS011;65441;44.748;37.600;2024-03-23T07:06:55;7.07;;;2.10;;
76576;SDS011;65441;44.748;37.600;2024-03-23T07:09:22;4.65;;;1.45;;
76576;SDS011;65441;44.748;37.600;2024-03-23T07:11:53;4.93;;;1.27;;
76576;SDS011;65441;44.748;37.600;2024-03-23T07:14:21;5.05;;;1.40;;
76576;SDS011;65441;44.748;37.600;2024-03-23T07:16:52;6.45;;;1.60;;
76576;SDS011;65441;44.748;37.600;2024-03-23T07:19:23;4.97;;;1.50;;
76576;SDS011;65441;44.748;37.600;2024-03-23T07:21:51;6.53;;;1.63;;
76576;SDS011;65441;44.748;37.600;2024-03-23T07:24:19;5.82;;;1.67;;
76576;SDS011;65441;44.748;37.600;2024-03-23T07:26:47;6.43;;;1.60;;
76576;SDS011;65441;44.748;37.600;2024-03-23T07:29:14;6.55;;;1.40;;
76576;SDS011;65441;44.748;37.600;2024-03-23T07:31:56;5.40;;;1.42;;
76576;SDS011;65441;44.748;37.600;2024-03-23T07:34:24;4.18;;;1.42;;
76576;SDS011;65441;44.748;37.600;2024-03-23T07:36:52;5.50;;;1.42;;
76576;SDS011;65441;44.748;37.600;2024-03-23T07:39:20;4.25;;;1.38;;
76576;SDS011;65441;44.748;37.600;2024-03-23T07:41:48;5.60;;;1.48;;
76576;SDS011;65441;44.748;37.600;2024-03-23T07:44:15;4.93;;;1.25;;
76576;SDS011;65441;44.748;37.600;2024-03-23T07:46:43;4.65;;;1.10;;
76576;SDS011;65441;44.748;37.600;2024-03-23T07:49:12;4.72;;;1.38;;
76576;SDS011;65441;44.748;37.600;2024-03-23T07:51:40;3.38;;;0.95;;
76576;SDS011;65441;44.748;37.600;2024-03-23T07:54:07;3.45;;;1.02;;
76576;SDS011;65441;44.748;37.600;2024-03-23T07:56:35;4.65;;;1.05;;
76576;SDS011;65441;44.748;37.600;2024-03-23T07:59:02;3.65;;;1.17;;
76576;SDS011;65441;44.748;37.600;2024-03-23T08:01:31;6.40;;;1.40;;
76576;SDS011;65441;44.748;37.600;2024-03-23T08:04:01;5.45;;;1.25;;
76576;SDS011;65441;44.748;37.600;2024-03-23T08:06:31;5.88;;;1.30;;
76576;SDS011;65441;44.748;37.600;2024-03-23T08:08:58;6.13;;;1.23;;
76576;SDS011;65441;44.748;37.600;2024-03-23T08:11:27;4.25;;;1.00;;
76576;SDS011;65441;44.748;37.600;2024-03-23T08:13:55;6.75;;;1.00;;
76576;SDS011;65441;44.748;37.600;2024-03-23T08:16:23;3.03;;;0.80;;
76576;SDS011;65441;44.748;37.600;2024-03-23T08:18:51;3.53;;;1.08;;
76576;SDS011;65441;44.748;37.600;2024-03-23T08:21:19;3.55;;;0.82;;
76576;SDS011;65441;44.748;37.600;2024-03-23T08:23:48;4.35;;;1.05;;
76576;SDS011;65441;44.748;37.600;2024-03-23T08:26:16;4.60;;;1.30;;
76576;SDS011;65441;44.748;37.600;2024-03-23T08:28:44;4.70;;;1.23;;
76576;SDS011;65441;44.748;37.600;2024-03-23T08:31:12;4.78;;;1.13;;
76576;SDS011;65441;44.748;37.600;2024-03-23T08:33:40;3.00;;;0.63;;
76576;SDS011;65441;44.748;37.600;2024-03-23T08:36:10;3.95;;;0.90;;
76576;SDS011;65441;44.748;37.600;2024-03-23T08:38:38;4.25;;;1.10;;
76576;SDS011;65441;44.748;37.600;2024-03-23T08:41:08;3.13;;;0.93;;
76576;SDS011;65441;44.748;37.600;2024-03-23T08:43:37;5.93;;;1.35;;
76576;SDS011;65441;44.748;37.600;2024-03-23T08:46:07;4.88;;;1.02;;
76576;SDS011;65441;44.748;37.600;2024-03-23T08:48:35;4.28;;;0.90;;
76576;SDS011;65441;44.748;37.600;2024-03-23T08:51:04;6.20;;;1.20;;
76576;SDS011;65441;44.748;37.600;2024-03-23T08:53:32;4.63;;;1.33;;
76576;SDS011;65441;44.748;37.600;2024-03-23T08:56:00;4.07;;;1.13;;
76576;SDS011;65441;44.748;37.600;2024-03-23T08:58:30;8.13;;;1.60;;
76576;SDS011;65441;44.748;37.600;2024-03-23T09:01:03;6.10;;;1.23;;
76576;SDS011;65441;44.748;37.600;2024-03-23T09:03:31;4.47;;;1.40;;
76576;SDS011;65441;44.748;37.600;2024-03-23T09:06:00;6.57;;;1.15;;
76576;SDS011;65441;44.748;37.600;2024-03-23T09:08:27;4.50;;;1.20;;
76576;SDS011;65441;44.748;37.600;2024-03-23T09:10:55;4.78;;;1.10;;
76576;SDS011;65441;44.748;37.600;2024-03-23T09:13:23;4.72;;;1.30;;
76576;SDS011;65441;44.748;37.600;2024-03-23T09:15:52;4.65;;;1.17;;
76576;SDS011;65441;44.748;37.600;2024-03-23T09:18:22;4.47;;;1.00;;
76576;SDS011;65441;44.748;37.600;2024-03-23T09:20:53;3.03;;;0.80;;
76576;SDS011;65441;44.748;37.600;2024-03-23T09:23:23;2.70;;;0.65;;
76576;SDS011;65441;44.748;37.600;2024-03-23T09:25:51;2.78;;;0.90;;
76576;SDS011;65441;44.748;37.600;2024-03-23T09:28:18;2.90;;;0.93;;
76576;SDS011;65441;44.748;37.600;2024-03-23T09:30:46;3.25;;;0.85;;
76576;SDS011;65441;44.748;37.600;2024-03-23T09:33:15;3.55;;;1.10;;
76576;SDS011;65441;44.748;37.600;2024-03-23T09:35:43;4.75;;;1.23;;
76576;SDS011;65441;44.748;37.600;2024-03-23T09:40:40;4.55;;;1.05;;
76576;SDS011;65441;44.748;37.600;2024-03-23T09:43:08;2.45;;;0.73;;
76576;SDS011;65441;44.748;37.600;2024-03-23T09:45:38;3.28;;;0.90;;
76576;SDS011;65441;44.748;37.600;2024-03-23T09:48:06;3.38;;;0.85;;
76576;SDS011;65441;44.748;37.600;2024-03-23T09:50:38;2.70;;;0.80;;
76576;SDS011;65441;44.748;37.600;2024-03-23T09:53:09;2.13;;;0.70;;
76576;SDS011;65441;44.748;37.600;2024-03-23T09:55:39;4.18;;;0.98;;
76576;SDS011;65441;44.748;37.600;2024-03-23T09:58:08;2.53;;;0.82;;
76576;SDS011;65441;44.748;37.600;2024-03-23T10:00:40;3.72;;;1.10;;
76576;SDS011;65441;44.748;37.600;2024-03-23T10:03:07;3.78;;;1.00;;
76576;SDS011;65441;44.748;37.600;2024-03-23T10:05:38;3.70;;;1.15;;
76576;SDS011;65441;44.748;37.600;2024-03-23T10:08:17;5.28;;;1.40;;
76576;SDS011;65441;44.748;37.600;2024-03-23T10:10:46;3.67;;;1.17;;
76576;SDS011;65441;44.748;37.600;2024-03-23T10:13:23;4.05;;;1.00;;
76576;SDS011;65441;44.748;37.600;2024-03-23T10:15:56;12.57;;;5.45;;
76576;SDS011;65441;44.748;37.600;2024-03-23T10:18:24;3.85;;;1.00;;
76576;SDS011;65441;44.748;37.600;2024-03-23T10:21:07;2.92;;;1.00;;
76576;SDS011;65441;44.748;37.600;2024-03-23T10:23:37;3.30;;;0.93;;
76576;SDS011;65441;44.748;37.600;2024-03-23T10:26:17;5.97;;;1.95;;
76576;SDS011;65441;44.748;37.600;2024-03-23T10:28:52;3.53;;;0.90;;
76576;SDS011;65441;44.748;37.600;2024-03-23T10:31:21;3.67;;;0.88;;
76576;SDS011;65441;44.748;37.600;2024-03-23T10:33:48;4.35;;;0.93;;
76576;SDS011;65441;44.748;37.600;2024-03-23T10:36:18;4.05;;;1.33;;
76576;SDS011;65441;44.748;37.600;2024-03-23T10:38:47;10.43;;;3.25;;
76576;SDS011;65441;44.748;37.600;2024-03-23T10:41:17;1.33;;;0.50;;
76576;SDS011;65441;44.748;37.600;2024-03-23T10:43:45;1.85;;;0.50;;
76576;SDS011;65441;44.748;37.600;2024-03-23T10:46:14;3.85;;;1.10;;
76576;SDS011;65441;44.748;37.600;2024-03-23T10:48:43;1.42;;;0.47;;
76576;SDS011;65441;44.748;37.600;2024-03-23T10:51:10;2.47;;;0.57;;
76576;SDS011;65441;44.748;37.600;2024-03-23T10:53:41;1.92;;;0.45;;
76576;SDS011;65441;44.748;37.600;2024-03-23T10:56:08;1.70;;;0.60;;
76576;SDS011;65441;44.748;37.600;2024-03-23T10:58:39;1.48;;;0.60;;
76576;SDS011;65441;44.748;37.600;2024-03-23T11:01:10;1.88;;;0.50;;
76576;SDS011;65441;44.748;37.600;2024-03-23T11:03:39;4.82;;;0.70;;
76576;SDS011;65441;44.748;37.600;2024-03-23T11:06:33;1.33;;;0.43;;
76576;SDS011;65441;44.748;37.600;2024-03-23T11:09:04;4.10;;;0.82;;
76576;SDS011;65441;44.748;37.600;2024-03-23T11:14:54;0.68;;;0.32;;
76576;SDS011;65441;44.748;37.600;2024-03-23T11:17:24;1.90;;;0.50;;
76576;SDS011;65441;44.748;37.600;2024-03-23T11:19:53;1.85;;;0.77;;
76576;SDS011;65441;44.748;37.600;2024-03-23T11:22:38;2.42;;;0.82;;
76576;SDS011;65441;44.748;37.600;2024-03-23T11:25:15;1.85;;;0.47;;
76576;SDS011;65441;44.748;37.600;2024-03-23T11:27:44;2.35;;;0.68;;
76576;SDS011;65441;44.748;37.600;2024-03-23T11:30:13;2.15;;;0.50;;
76576;SDS011;65441;44.748;37.600;2024-03-23T11:32:42;3.72;;;0.70;;
76576;SDS011;65441;44.748;37.600;2024-03-23T11:35:11;1.52;;;0.52;;
76576;SDS011;65441;44.748;37.600;2024-03-23T11:38:04;6.47;;;1.35;;
76576;SDS011;65441;44.748;37.600;2024-03-23T11:40:36;2.28;;;0.50;;
76576;SDS011;65441;44.748;37.600;2024-03-23T11:43:04;8.15;;;2.03;;
76576;SDS011;65441;44.748;37.600;2024-03-23T11:45:42;6.10;;;1.30;;
76576;SDS011;65441;44.748;37.600;2024-03-23T11:48:10;3.90;;;1.08;;
76576;SDS011;65441;44.748;37.600;2024-03-23T11:50:40;7.07;;;1.38;;
76576;SDS011;65441;44.748;37.600;2024-03-23T11:53:08;1.98;;;0.55;;
76576;SDS011;65441;44.748;37.600;2024-03-23T11:55:43;7.25;;;1.70;;
76576;SDS011;65441;44.748;37.600;2024-03-23T11:58:12;3.90;;;0.80;;
76576;SDS011;65441;44.748;37.600;2024-03-23T12:00:41;5.63;;;0.95;;
76576;SDS011;65441;44.748;37.600;2024-03-23T12:03:08;4.28;;;1.10;;
76576;SDS011;65441;44.748;37.600;2024-03-23T12:05:37;5.97;;;1.50;;
76576;SDS011;65441;44.748;37.600;2024-03-23T12:08:23;7.35;;;2.22;;
76576;SDS011;65441;44.748;37.600;2024-03-23T12:11:10;4.00;;;0.80;;
76576;SDS011;65441;44.748;37.600;2024-03-23T12:13:38;4.72;;;1.23;;
76576;SDS011;65441;44.748;37.600;2024-03-23T12:16:11;2.03;;;0.60;;
76576;SDS011;65441;44.748;37.600;2024-03-23T12:18:39;1.38;;;0.30;;
76576;SDS011;65441;44.748;37.600;2024-03-23T12:21:08;3.28;;;0.40;;
76576;SDS011;65441;44.748;37.600;2024-03-23T12:23:36;1.92;;;0.60;;
76576;SDS011;65441;44.748;37.600;2024-03-23T12:26:06;5.72;;;1.20;;
76576;SDS011;65441;44.748;37.600;2024-03-23T12:28:35;2.15;;;0.47;;
76576;SDS011;65441;44.748;37.600;2024-03-23T12:31:03;3.25;;;0.90;;
76576;SDS011;65441;44.748;37.600;2024-03-23T12:33:33;3.92;;;0.80;;
76576;SDS011;65441;44.748;37.600;2024-03-23T12:36:02;2.92;;;0.70;;
76576;SDS011;65441;44.748;37.600;2024-03-23T12:38:29;0.80;;;0.40;;
76576;SDS011;65441;44.748;37.600;2024-03-23T12:41:01;3.67;;;1.42;;
76576;SDS011;65441;44.748;37.600;2024-03-23T12:43:29;3.33;;;1.02;;
76576;SDS011;65441;44.748;37.600;2024-03-23T12:45:57;2.42;;;0.70;;
76576;SDS011;65441;44.748;37.600;2024-03-23T12:48:24;1.95;;;0.50;;
76576;SDS011;65441;44.748;37.600;2024-03-23T12:50:54;0.63;;;0.20;;
76576;SDS011;65441;44.748;37.600;2024-03-23T12:53:21;3.80;;;0.47;;
76576;SDS011;65441;44.748;37.600;2024-03-23T12:55:49;1.70;;;0.50;;
76576;SDS011;65441;44.748;37.600;2024-03-23T12:58:16;2.70;;;0.40;;
76576;SDS011;65441;44.748;37.600;2024-03-23T13:00:46;5.10;;;1.40;;
76576;SDS011;65441;44.748;37.600;2024-03-23T13:03:14;2.78;;;0.50;;
76576;SDS011;65441;44.748;37.600;2024-03-23T13:05:43;4.75;;;0.50;;
76576;SDS011;65441;44.748;37.600;2024-03-23T13:08:10;5.13;;;1.10;;
76576;SDS011;65441;44.748;37.600;2024-03-23T13:10:38;2.15;;;0.50;;
76576;SDS011;65441;44.748;37.600;2024-03-23T13:13:05;9.45;;;1.80;;
76576;SDS011;65441;44.748;37.600;2024-03-23T13:15:34;2.65;;;0.63;;
76576;SDS011;65441;44.748;37.600;2024-03-23T13:18:03;4.45;;;0.80;;
76576;SDS011;65441;44.748;37.600;2024-03-23T13:20:31;6.82;;;1.60;;
76576;SDS011;65441;44.748;37.600;2024-03-23T13:23:01;0.85;;;0.32;;
76576;SDS011;65441;44.748;37.600;2024-03-23T13:25:30;1.13;;;0.40;;
76576;SDS011;65441;44.748;37.600;2024-03-23T13:27:57;4.50;;;1.45;;
76576;SDS011;65441;44.748;37.600;2024-03-23T13:30:25;2.10;;;0.30;;
76576;SDS011;65441;44.748;37.600;2024-03-23T13:32:53;2.25;;;0.63;;
76576;SDS011;65441;44.748;37.600;2024-03-23T13:35:22;2.97;;;0.30;;
76576;SDS011;65441;44.748;37.600;2024-03-23T13:37:50;1.98;;;0.60;;
76576;SDS011;65441;44.748;37.600;2024-03-23T13:40:27;2.88;;;0.63;;
76576;SDS011;65441;44.748;37.600;2024-03-23T13:43:34;1.20;;;0.38;;
76576;SDS011;65441;44.748;37.600;2024-03-23T13:46:02;1.85;;;0.60;;
76576;SDS011;65441;44.748;37.600;2024-03-23T13:48:30;1.90;;;0.60;;
76576;SDS011;65441;44.748;37.600;2024-03-23T14:04:16;0.50;;;0.40;;
76576;SDS011;65441;44.748;37.600;2024-03-23T14:06:46;0.98;;;0.28;;
76576;SDS011;65441;44.748;37.600;2024-03-23T14:09:14;1.90;;;0.50;;
76576;SDS011;65441;44.748;37.600;2024-03-23T14:11:47;3.35;;;0.82;;
76576;SDS011;65441;44.748;37.600;2024-03-23T14:14:14;1.15;;;0.38;;
76576;SDS011;65441;44.748;37.600;2024-03-23T14:16:43;1.88;;;0.45;;
76576;SDS011;65441;44.748;37.600;2024-03-23T14:19:10;1.88;;;0.40;;
76576;SDS011;65441;44.748;37.600;2024-03-23T14:21:40;2.88;;;0.70;;
76576;SDS011;65441;44.748;37.600;2024-03-23T14:24:08;4.22;;;0.77;;
76576;SDS011;65441;44.748;37.600;2024-03-23T14:26:36;5.28;;;0.80;;
76576;SDS011;65441;44.748;37.600;2024-03-23T14:29:04;3.75;;;0.50;;
76576;SDS011;65441;44.748;37.600;2024-03-23T14:31:33;2.05;;;0.28;;
76576;SDS011;65441;44.748;37.600;2024-03-23T14:34:00;2.50;;;0.20;;
76576;SDS011;65441;44.748;37.600;2024-03-23T14:36:28;2.63;;;0.30;;
76576;SDS011;65441;44.748;37.600;2024-03-23T14:38:57;2.05;;;0.20;;
76576;SDS011;65441;44.748;37.600;2024-03-23T14:41:25;2.65;;;0.60;;
76576;SDS011;65441;44.748;37.600;2024-03-23T14:43:52;1.88;;;0.43;;
76576;SDS011;65441;44.748;37.600;2024-03-23T14:46:20;2.50;;;0.60;;
76576;SDS011;65441;44.748;37.600;2024-03-23T14:48:48;4.15;;;0.60;;
76576;SDS011;65441;44.748;37.600;2024-03-23T14:51:16;3.13;;;0.50;;
76576;SDS011;65441;44.748;37.600;2024-03-23T14:53:45;1.52;;;0.50;;
76576;SDS011;65441;44.748;37.600;2024-03-23T14:56:15;1.55;;;0.32;;
76576;SDS011;65441;44.748;37.600;2024-03-23T14:58:43;1.50;;;0.40;;
76576;SDS011;65441;44.748;37.600;2024-03-23T15:01:11;2.75;;;0.40;;
76576;SDS011;65441;44.748;37.600;2024-03-23T15:03:39;1.90;;;0.50;;
76576;SDS011;65441;44.748;37.600;2024-03-23T15:06:09;2.15;;;0.45;;
76576;SDS011;65441;44.748;37.600;2024-03-23T15:08:37;5.15;;;0.55;;
76576;SDS011;65441;44.748;37.600;2024-03-23T15:11:06;2.72;;;0.70;;
76576;SDS011;65441;44.748;37.600;2024-03-23T15:13:35;3.70;;;0.90;;
76576;SDS011;65441;44.748;37.600;2024-03-23T15:16:04;3.42;;;0.57;;
76576;SDS011;65441;44.748;37.600;2024-03-23T15:18:31;1.08;;;0.30;;
76576;SDS011;65441;44.748;37.600;2024-03-23T15:21:02;1.38;;;0.35;;
76576;SDS011;65441;44.748;37.600;2024-03-23T15:23:31;1.83;;;0.40;;
76576;SDS011;65441;44.748;37.600;2024-03-23T15:26:02;1.48;;;0.63;;
76576;SDS011;65441;44.748;37.600;2024-03-23T15:28:29;6.88;;;1.00;;
76576;SDS011;65441;44.748;37.600;2024-03-23T15:31:10;3.78;;;0.60;;
76576;SDS011;65441;44.748;37.600;2024-03-23T15:33:37;3.35;;;0.70;;
76576;SDS011;65441;44.748;37.600;2024-03-23T15:36:06;5.22;;;0.70;;
76576;SDS011;65441;44.748;37.600;2024-03-23T15:38:34;3.10;;;0.80;;
76576;SDS011;65441;44.748;37.600;2024-03-23T15:41:02;3.90;;;0.90;;
76576;SDS011;65441;44.748;37.600;2024-03-23T15:45:58;5.03;;;0.70;;
76576;SDS011;65441;44.748;37.600;2024-03-23T15:48:28;5.93;;;1.02;;
76576;SDS011;65441;44.748;37.600;2024-03-23T15:50:57;2.90;;;0.70;;
76576;SDS011;65441;44.748;37.600;2024-03-23T15:53:25;5.25;;;0.55;;
76576;SDS011;65441;44.748;37.600;2024-03-23T15:55:54;1.83;;;0.50;;
76576;SDS011;65441;44.748;37.600;2024-03-23T15:58:22;2.70;;;0.55;;
76576;SDS011;65441;44.748;37.600;2024-03-23T16:00:54;3.50;;;0.80;;